sensor_id;sensor_type;location;lat;lon;timestamp;temperature;humidity
19085;DHT22;9675;51.538;6.728;2022-10-16T04:01:50;14.90;99.90
19085;DHT22;9675;51.538;6.728;2022-10-16T04:04:20;14.90;99.90
19085;DHT22;9675;51.538;6.728;2022-10-16T04:06:47;14.90;99.90
19085;DHT22;9675;51.538;6.728;2022-10-16T04:09:14;14.90;99.90
19085;DHT22;9675;51.538;6.728;2022-10-16T04:11:41;14.90;99.90
19085;DHT22;9675;51.538;6.728;2022-10-16T04:14:08;14.90;99.90
19085;DHT22;9675;51.538;6.728;2022-10-16T04:16:35;14.90;99.90
19085;DHT22;9675;51.538;6.728;2022-10-16T04:19:03;14.90;99.90
19085;DHT22;9675;51.538;6.728;2022-10-16T04:21:30;14.90;99.90
19085;DHT22;9675;51.538;6.728;2022-10-16T04:23:57;14.90;99.90
19085;DHT22;9675;51.538;6.728;2022-10-16T04:26:24;14.90;99.90
19085;DHT22;9675;51.538;6.728;2022-10-16T04:28:51;14.90;99.90
19085;DHT22;9675;51.538;6.728;2022-10-16T04:31:19;14.90;99.90
19085;DHT22;9675;51.538;6.728;2022-10-16T04:33:46;14.90;99.90
19085;DHT22;9675;51.538;6.728;2022-10-16T04:36:15;14.80;99.90
19085;DHT22;9675;51.538;6.728;2022-10-16T04:38:42;14.90;99.90
19085;DHT22;9675;51.538;6.728;2022-10-16T04:41:09;14.90;99.90
19085;DHT22;9675;51.538;6.728;2022-10-16T04:43:36;14.90;99.90
19085;DHT22;9675;51.538;6.728;2022-10-16T04:46:03;14.90;99.90
19085;DHT22;9675;51.538;6.728;2022-10-16T04:48:31;14.90;99.90
19085;DHT22;9675;51.538;6.728;2022-10-16T04:50:58;14.90;99.90
19085;DHT22;9675;51.538;6.728;2022-10-16T04:53:26;14.80;99.90
19085;DHT22;9675;51.538;6.728;2022-10-16T04:55:53;14.90;99.90
19085;DHT22;9675;51.538;6.728;2022-10-16T04:58:21;14.80;99.90
19085;DHT22;9675;51.538;6.728;2022-10-16T05:00:48;14.80;99.90
19085;DHT22;9675;51.538;6.728;2022-10-16T05:03:15;14.80;99.90
19085;DHT22;9675;51.538;6.728;2022-10-16T05:05:43;14.80;99.90
19085;DHT22;9675;51.538;6.728;2022-10-16T05:08:12;14.80;99.90
19085;DHT22;9675;51.538;6.728;2022-10-16T05:10:43;14.80;99.90
19085;DHT22;9675;51.538;6.728;2022-10-16T05:13:11;14.80;99.90
19085;DHT22;9675;51.538;6.728;2022-10-16T05:15:38;14.80;99.90
19085;DHT22;9675;51.538;6.728;2022-10-16T05:18:06;14.80;99.90
19085;DHT22;9675;51.538;6.728;2022-10-16T05:20:33;14.80;99.90
19085;DHT22;9675;51.538;6.728;2022-10-16T05:23:00;14.80;99.90
19085;DHT22;9675;51.538;6.728;2022-10-16T05:25:27;14.80;99.90
19085;DHT22;9675;51.538;6.728;2022-10-16T05:27:56;14.80;99.90
19085;DHT22;9675;51.538;6.728;2022-10-16T05:30:23;14.70;99.90
19085;DHT22;9675;51.538;6.728;2022-10-16T05:32:51;14.80;99.90
19085;DHT22;9675;51.538;6.728;2022-10-16T05:35:18;14.80;99.90
19085;DHT22;9675;51.538;6.728;2022-10-16T05:37:46;14.80;99.90
19085;DHT22;9675;51.538;6.728;2022-10-16T05:40:14;14.80;99.90
19085;DHT22;9675;51.538;6.728;2022-10-16T05:42:42;14.80;99.90
19085;DHT22;9675;51.538;6.728;2022-10-16T05:45:11;14.70;99.90
19085;DHT22;9675;51.538;6.728;2022-10-16T05:47:38;14.70;99.90
19085;DHT22;9675;51.538;6.728;2022-10-16T05:50:06;14.70;99.90
19085;DHT22;9675;51.538;6.728;2022-10-16T05:52:34;14.70;99.90
19085;DHT22;9675;51.538;6.728;2022-10-16T05:55:01;14.70;99.90
19085;DHT22;9675;51.538;6.728;2022-10-16T05:57:29;14.70;99.90
19085;DHT22;9675;51.538;6.728;2022-10-16T05:59:56;14.70;99.90
19085;DHT22;9675;51.538;6.728;2022-10-16T06:02:24;14.70;99.90
19085;DHT22;9675;51.538;6.728;2022-10-16T06:04:52;14.70;99.90
19085;DHT22;9675;51.538;6.728;2022-10-16T06:07:20;14.70;99.90
19085;DHT22;9675;51.538;6.728;2022-10-16T06:09:48;14.70;99.90
19085;DHT22;9675;51.538;6.728;2022-10-16T06:12:16;14.70;99.90
19085;DHT22;9675;51.538;6.728;2022-10-16T06:14:44;14.70;99.90
19085;DHT22;9675;51.538;6.728;2022-10-16T06:17:12;14.70;99.90
19085;DHT22;9675;51.538;6.728;2022-10-16T06:19:40;14.70;99.90
19085;DHT22;9675;51.538;6.728;2022-10-16T06:22:07;14.60;99.90
19085;DHT22;9675;51.538;6.728;2022-10-16T06:24:35;14.60;99.90
19085;DHT22;9675;51.538;6.728;2022-10-16T06:27:03;14.60;99.90
19085;DHT22;9675;51.538;6.728;2022-10-16T06:29:30;14.70;99.90
19085;DHT22;9675;51.538;6.728;2022-10-16T06:31:57;14.60;99.90
19085;DHT22;9675;51.538;6.728;2022-10-16T06:34:24;14.60;99.90
19085;DHT22;9675;51.538;6.728;2022-10-16T06:36:52;14.60;99.90
19085;DHT22;9675;51.538;6.728;2022-10-16T06:39:19;14.60;99.90
19085;DHT22;9675;51.538;6.728;2022-10-16T06:41:46;14.60;99.90
19085;DHT22;9675;51.538;6.728;2022-10-16T06:44:14;14.60;99.90
19085;DHT22;9675;51.538;6.728;2022-10-16T06:46:41;14.60;99.90
19085;DHT22;9675;51.538;6.728;2022-10-16T06:49:09;14.60;99.90
19085;DHT22;9675;51.538;6.728;2022-10-16T06:51:36;14.60;99.90
19085;DHT22;9675;51.538;6.728;2022-10-16T06:54:07;14.60;99.90
19085;DHT22;9675;51.538;6.728;2022-10-16T06:56:35;14.60;99.90
19085;DHT22;9675;51.538;6.728;2022-10-16T06:59:03;14.60;99.90
19085;DHT22;9675;51.538;6.728;2022-10-16T07:01:30;14.60;99.90
19085;DHT22;9675;51.538;6.728;2022-10-16T07:03:57;14.60;99.90
19085;DHT22;9675;51.538;6.728;2022-10-16T07:06:26;14.60;99.90
19085;DHT22;9675;51.538;6.728;2022-10-16T07:08:54;14.60;99.90
19085;DHT22;9675;51.538;6.728;2022-10-16T07:11:23;14.60;99.90
19085;DHT22;9675;51.538;6.728;2022-10-16T07:13:51;14.60;99.90
19085;DHT22;9675;51.538;6.728;2022-10-16T07:16:20;14.60;99.90
19085;DHT22;9675;51.538;6.728;2022-10-16T07:18:48;14.60;99.90
19085;DHT22;9675;51.538;6.728;2022-10-16T07:21:18;14.60;99.90
19085;DHT22;9675;51.538;6.728;2022-10-16T07:23:50;14.50;99.90
19085;DHT22;9675;51.538;6.728;2022-10-16T07:26:17;14.50;99.90
19085;DHT22;9675;51.538;6.728;2022-10-16T07:28:46;14.50;99.90
19085;DHT22;9675;51.538;6.728;2022-10-16T07:31:14;14.50;99.90
19085;DHT22;9675;51.538;6.728;2022-10-16T07:33:43;14.50;99.90
19085;DHT22;9675;51.538;6.728;2022-10-16T07:36:12;14.50;99.90
19085;DHT22;9675;51.538;6.728;2022-10-16T07:38:41;14.50;99.90
19085;DHT22;9675;51.538;6.728;2022-10-16T07:41:10;14.50;99.90
19085;DHT22;9675;51.538;6.728;2022-10-16T07:43:39;14.50;99.90
19085;DHT22;9675;51.538;6.728;2022-10-16T07:46:07;14.50;99.90
19085;DHT22;9675;51.538;6.728;2022-10-16T07:48:34;14.50;99.90
19085;DHT22;9675;51.538;6.728;2022-10-16T07:51:04;14.50;99.90
19085;DHT22;9675;51.538;6.728;2022-10-16T07:53:32;14.50;99.90
19085;DHT22;9675;51.538;6.728;2022-10-16T07:55:59;14.50;99.90
19085;DHT22;9675;51.538;6.728;2022-10-16T07:58:28;14.50;99.90
19085;DHT22;9675;51.538;6.728;2022-10-16T08:00:56;14.60;99.90
19085;DHT22;9675;51.538;6.728;2022-10-16T08:03:25;14.60;99.90
19085;DHT22;9675;51.538;6.728;2022-10-16T08:05:52;14.60;99.90
19085;DHT22;9675;51.538;6.728;2022-10-16T08:08:19;14.70;99.90
19085;DHT22;9675;51.538;6.728;2022-10-16T08:10:47;14.70;99.90
19085;DHT22;9675;51.538;6.728;2022-10-16T08:13:14;14.70;99.90
19085;DHT22;9675;51.538;6.728;2022-10-16T08:15:41;14.70;99.90
19085;DHT22;9675;51.538;6.728;2022-10-16T08:18:09;14.80;99.90
19085;DHT22;9675;51.538;6.728;2022-10-16T08:20:39;14.80;99.90
19085;DHT22;9675;51.538;6.728;2022-10-16T08:23:08;14.80;99.90
19085;DHT22;9675;51.538;6.728;2022-10-16T08:25:37;14.90;99.90
19085;DHT22;9675;51.538;6.728;2022-10-16T08:28:04;14.90;99.90
19085;DHT22;9675;51.538;6.728;2022-10-16T08:30:33;14.90;99.90
19085;DHT22;9675;51.538;6.728;2022-10-16T08:33:00;15.00;99.90
19085;DHT22;9675;51.538;6.728;2022-10-16T08:35:28;15.00;99.90
19085;DHT22;9675;51.538;6.728;2022-10-16T08:37:56;15.10;99.90
19085;DHT22;9675;51.538;6.728;2022-10-16T08:40:25;15.20;99.90
19085;DHT22;9675;51.538;6.728;2022-10-16T08:43:06;15.20;99.90
19085;DHT22;9675;51.538;6.728;2022-10-16T08:49:02;15.30;99.90
19085;DHT22;9675;51.538;6.728;2022-10-16T08:51:32;15.40;99.90
19085;DHT22;9675;51.538;6.728;2022-10-16T08:54:05;15.40;99.90
19085;DHT22;9675;51.538;6.728;2022-10-16T08:56:38;15.50;99.90
19085;DHT22;9675;51.538;6.728;2022-10-16T08:59:10;15.50;99.90
19085;DHT22;9675;51.538;6.728;2022-10-16T09:01:40;15.60;99.90
19085;DHT22;9675;51.538;6.728;2022-10-16T09:04:41;15.60;99.90
19085;DHT22;9675;51.538;6.728;2022-10-16T09:07:19;15.70;99.90
19085;DHT22;9675;51.538;6.728;2022-10-16T09:10:12;15.80;99.90
19085;DHT22;9675;51.538;6.728;2022-10-16T09:12:54;15.90;99.90
19085;DHT22;9675;51.538;6.728;2022-10-16T09:15:32;16.00;99.90
19085;DHT22;9675;51.538;6.728;2022-10-16T09:18:12;16.00;99.90
19085;DHT22;9675;51.538;6.728;2022-10-16T09:20:49;16.10;99.90
19085;DHT22;9675;51.538;6.728;2022-10-16T09:23:21;16.20;99.90
19085;DHT22;9675;51.538;6.728;2022-10-16T09:25:54;16.30;99.90
19085;DHT22;9675;51.538;6.728;2022-10-16T09:28:22;16.40;99.90
19085;DHT22;9675;51.538;6.728;2022-10-16T09:30:49;16.40;99.90
19085;DHT22;9675;51.538;6.728;2022-10-16T09:33:18;16.50;99.90
19085;DHT22;9675;51.538;6.728;2022-10-16T09:35:49;16.60;99.90
19085;DHT22;9675;51.538;6.728;2022-10-16T09:38:23;16.60;99.90
19085;DHT22;9675;51.538;6.728;2022-10-16T09:40:55;16.80;99.90
19085;DHT22;9675;51.538;6.728;2022-10-16T09:43:26;16.80;99.90
19085;DHT22;9675;51.538;6.728;2022-10-16T09:46:00;16.90;99.90
19085;DHT22;9675;51.538;6.728;2022-10-16T09:48:35;17.00;99.90
19085;DHT22;9675;51.538;6.728;2022-10-16T09:51:06;17.00;99.90
19085;DHT22;9675;51.538;6.728;2022-10-16T09:53:46;17.10;99.90
19085;DHT22;9675;51.538;6.728;2022-10-16T09:56:23;17.20;99.90
19085;DHT22;9675;51.538;6.728;2022-10-16T09:58:52;17.20;99.90
19085;DHT22;9675;51.538;6.728;2022-10-16T10:01:22;17.30;99.90
19085;DHT22;9675;51.538;6.728;2022-10-16T10:03:56;17.40;99.90
19085;DHT22;9675;51.538;6.728;2022-10-16T10:06:28;17.40;99.90
19085;DHT22;9675;51.538;6.728;2022-10-16T10:09:06;17.50;99.90
19085;DHT22;9675;51.538;6.728;2022-10-16T10:11:48;17.60;99.90
19085;DHT22;9675;51.538;6.728;2022-10-16T10:14:30;17.70;99.90
19085;DHT22;9675;51.538;6.728;2022-10-16T10:17:09;17.80;99.90
19085;DHT22;9675;51.538;6.728;2022-10-16T10:19:46;17.90;99.90
19085;DHT22;9675;51.538;6.728;2022-10-16T10:22:31;18.00;99.90
19085;DHT22;9675;51.538;6.728;2022-10-16T10:25:39;18.10;99.90
19085;DHT22;9675;51.538;6.728;2022-10-16T10:28:46;18.20;99.90
19085;DHT22;9675;51.538;6.728;2022-10-16T10:31:26;18.30;99.90
19085;DHT22;9675;51.538;6.728;2022-10-16T10:34:11;18.40;99.90
19085;DHT22;9675;51.538;6.728;2022-10-16T10:36:57;18.50;99.90
19085;DHT22;9675;51.538;6.728;2022-10-16T10:39:35;18.60;99.90
19085;DHT22;9675;51.538;6.728;2022-10-16T10:42:16;18.70;99.90
19085;DHT22;9675;51.538;6.728;2022-10-16T10:45:16;18.80;99.90
19085;DHT22;9675;51.538;6.728;2022-10-16T10:47:59;19.00;99.90
19085;DHT22;9675;51.538;6.728;2022-10-16T10:50:41;19.10;99.90
19085;DHT22;9675;51.538;6.728;2022-10-16T10:53:25;19.10;99.90
19085;DHT22;9675;51.538;6.728;2022-10-16T10:56:14;19.20;99.90
19085;DHT22;9675;51.538;6.728;2022-10-16T10:59:19;19.40;99.90
19085;DHT22;9675;51.538;6.728;2022-10-16T11:02:01;19.40;99.90
19085;DHT22;9675;51.538;6.728;2022-10-16T11:05:02;19.50;99.90
19085;DHT22;9675;51.538;6.728;2022-10-16T11:07:51;19.60;99.90
19085;DHT22;9675;51.538;6.728;2022-10-16T11:10:27;19.70;99.90
19085;DHT22;9675;51.538;6.728;2022-10-16T11:13:09;19.80;99.90
19085;DHT22;9675;51.538;6.728;2022-10-16T11:15:47;19.90;99.90
19085;DHT22;9675;51.538;6.728;2022-10-16T11:18:21;20.00;99.90
19085;DHT22;9675;51.538;6.728;2022-10-16T11:20:54;20.10;99.90
19085;DHT22;9675;51.538;6.728;2022-10-16T11:23:28;20.20;99.90
19085;DHT22;9675;51.538;6.728;2022-10-16T11:26:02;20.30;99.90
19085;DHT22;9675;51.538;6.728;2022-10-16T11:28:36;20.30;99.90
19085;DHT22;9675;51.538;6.728;2022-10-16T11:31:10;20.40;99.90
19085;DHT22;9675;51.538;6.728;2022-10-16T11:33:47;20.50;99.90
19085;DHT22;9675;51.538;6.728;2022-10-16T11:36:21;20.60;99.90
19085;DHT22;9675;51.538;6.728;2022-10-16T11:38:57;20.70;99.90
19085;DHT22;9675;51.538;6.728;2022-10-16T11:41:34;20.80;99.90
19085;DHT22;9675;51.538;6.728;2022-10-16T11:44:16;20.90;99.90
19085;DHT22;9675;51.538;6.728;2022-10-16T11:47:01;21.00;99.90
19085;DHT22;9675;51.538;6.728;2022-10-16T11:49:40;21.00;99.90
19085;DHT22;9675;51.538;6.728;2022-10-16T11:52:12;21.10;99.90
19085;DHT22;9675;51.538;6.728;2022-10-16T11:54:49;21.10;99.90
19085;DHT22;9675;51.538;6.728;2022-10-16T11:57:23;21.20;99.90
19085;DHT22;9675;51.538;6.728;2022-10-16T11:59:55;21.20;99.90
19085;DHT22;9675;51.538;6.728;2022-10-16T12:02:36;21.30;99.90
19085;DHT22;9675;51.538;6.728;2022-10-16T12:05:21;21.30;99.90
19085;DHT22;9675;51.538;6.728;2022-10-16T12:08:02;21.50;99.90
19085;DHT22;9675;51.538;6.728;2022-10-16T12:10:37;21.50;99.90
19085;DHT22;9675;51.538;6.728;2022-10-16T12:13:29;21.60;99.90
19085;DHT22;9675;51.538;6.728;2022-10-16T12:16:05;21.60;99.90
19085;DHT22;9675;51.538;6.728;2022-10-16T12:18:46;21.60;99.90
19085;DHT22;9675;51.538;6.728;2022-10-16T12:21:17;21.60;99.90
19085;DHT22;9675;51.538;6.728;2022-10-16T12:23:50;21.70;99.90
19085;DHT22;9675;51.538;6.728;2022-10-16T12:26:27;21.70;99.90
19085;DHT22;9675;51.538;6.728;2022-10-16T12:29:09;21.70;99.90
19085;DHT22;9675;51.538;6.728;2022-10-16T12:31:44;21.70;99.90
19085;DHT22;9675;51.538;6.728;2022-10-16T12:34:22;21.70;99.90
19085;DHT22;9675;51.538;6.728;2022-10-16T12:36:56;21.70;99.90
19085;DHT22;9675;51.538;6.728;2022-10-16T12:39:36;21.70;99.90
19085;DHT22;9675;51.538;6.728;2022-10-16T12:42:06;21.70;99.90
19085;DHT22;9675;51.538;6.728;2022-10-16T12:44:47;21.80;99.90
19085;DHT22;9675;51.538;6.728;2022-10-16T12:47:21;21.80;99.90
19085;DHT22;9675;51.538;6.728;2022-10-16T12:49:51;21.80;99.90
19085;DHT22;9675;51.538;6.728;2022-10-16T12:52:34;21.80;99.90
19085;DHT22;9675;51.538;6.728;2022-10-16T12:55:04;21.80;99.90
19085;DHT22;9675;51.538;6.728;2022-10-16T12:57:44;21.90;99.90
19085;DHT22;9675;51.538;6.728;2022-10-16T13:00:38;21.90;99.90
19085;DHT22;9675;51.538;6.728;2022-10-16T13:06:36;22.00;99.90
19085;DHT22;9675;51.538;6.728;2022-10-16T13:09:23;22.00;99.90
19085;DHT22;9675;51.538;6.728;2022-10-16T13:12:13;22.10;99.90
19085;DHT22;9675;51.538;6.728;2022-10-16T13:15:12;22.10;99.90
19085;DHT22;9675;51.538;6.728;2022-10-16T13:17:58;22.20;99.90
19085;DHT22;9675;51.538;6.728;2022-10-16T13:20:36;22.20;99.90
19085;DHT22;9675;51.538;6.728;2022-10-16T13:23:16;22.30;99.90
19085;DHT22;9675;51.538;6.728;2022-10-16T13:26:06;22.30;99.90
19085;DHT22;9675;51.538;6.728;2022-10-16T13:28:42;22.30;99.90
19085;DHT22;9675;51.538;6.728;2022-10-16T13:31:15;22.40;99.90
19085;DHT22;9675;51.538;6.728;2022-10-16T13:33:47;22.40;99.90
19085;DHT22;9675;51.538;6.728;2022-10-16T13:36:20;22.50;99.90
19085;DHT22;9675;51.538;6.728;2022-10-16T13:38:48;22.50;99.90
19085;DHT22;9675;51.538;6.728;2022-10-16T13:41:28;22.50;99.90
19085;DHT22;9675;51.538;6.728;2022-10-16T13:43:56;22.50;99.90
19085;DHT22;9675;51.538;6.728;2022-10-16T13:46:25;22.50;99.90
19085;DHT22;9675;51.538;6.728;2022-10-16T13:48:59;22.50;99.90
19085;DHT22;9675;51.538;6.728;2022-10-16T13:51:30;22.50;99.90
19085;DHT22;9675;51.538;6.728;2022-10-16T13:53:59;22.50;99.90
19085;DHT22;9675;51.538;6.728;2022-10-16T13:56:29;22.50;99.90
19085;DHT22;9675;51.538;6.728;2022-10-16T13:59:01;22.50;99.90
19085;DHT22;9675;51.538;6.728;2022-10-16T14:01:32;22.50;99.90
19085;DHT22;9675;51.538;6.728;2022-10-16T14:04:02;22.50;99.90
19085;DHT22;9675;51.538;6.728;2022-10-16T14:06:32;22.40;99.90
19085;DHT22;9675;51.538;6.728;2022-10-16T14:09:04;22.40;99.90
19085;DHT22;9675;51.538;6.728;2022-10-16T14:11:41;22.40;99.90
19085;DHT22;9675;51.538;6.728;2022-10-16T14:14:14;22.40;99.90
19085;DHT22;9675;51.538;6.728;2022-10-16T14:16:43;22.40;99.90
19085;DHT22;9675;51.538;6.728;2022-10-16T14:19:18;22.40;99.90
19085;DHT22;9675;51.538;6.728;2022-10-16T14:21:49;22.40;99.90
19085;DHT22;9675;51.538;6.728;2022-10-16T14:24:26;22.40;99.90
19085;DHT22;9675;51.538;6.728;2022-10-16T14:26:55;22.30;99.90
19085;DHT22;9675;51.538;6.728;2022-10-16T14:29:24;22.40;99.90
19085;DHT22;9675;51.538;6.728;2022-10-16T14:31:57;22.30;99.90
19085;DHT22;9675;51.538;6.728;2022-10-16T14:34:28;22.30;99.90
19085;DHT22;9675;51.538;6.728;2022-10-16T14:37:00;22.30;99.90
19085;DHT22;9675;51.538;6.728;2022-10-16T14:39:33;22.30;99.90
19085;DHT22;9675;51.538;6.728;2022-10-16T14:42:02;22.20;99.90
19085;DHT22;9675;51.538;6.728;2022-10-16T14:44:32;22.20;99.90
19085;DHT22;9675;51.538;6.728;2022-10-16T14:47:07;22.20;99.90
19085;DHT22;9675;51.538;6.728;2022-10-16T14:49:41;22.20;99.90
19085;DHT22;9675;51.538;6.728;2022-10-16T14:52:10;22.20;99.90
19085;DHT22;9675;51.538;6.728;2022-10-16T14:54:38;22.10;99.90
19085;DHT22;9675;51.538;6.728;2022-10-16T14:57:16;22.20;99.90
19085;DHT22;9675;51.538;6.728;2022-10-16T14:59:45;22.10;99.90
19085;DHT22;9675;51.538;6.728;2022-10-16T15:02:20;22.10;99.90
19085;DHT22;9675;51.538;6.728;2022-10-16T15:04:52;22.10;99.90
19085;DHT22;9675;51.538;6.728;2022-10-16T15:07:19;22.10;99.90
19085;DHT22;9675;51.538;6.728;2022-10-16T15:09:46;22.00;99.90
19085;DHT22;9675;51.538;6.728;2022-10-16T15:12:15;22.00;99.90
19085;DHT22;9675;51.538;6.728;2022-10-16T15:14:42;22.00;99.90
19085;DHT22;9675;51.538;6.728;2022-10-16T15:17:10;22.00;99.90
19085;DHT22;9675;51.538;6.728;2022-10-16T15:19:38;22.00;99.90
19085;DHT22;9675;51.538;6.728;2022-10-16T15:22:06;21.90;99.90
19085;DHT22;9675;51.538;6.728;2022-10-16T15:24:33;21.90;99.90
19085;DHT22;9675;51.538;6.728;2022-10-16T15:27:00;21.90;99.90
19085;DHT22;9675;51.538;6.728;2022-10-16T15:29:28;21.90;99.90
19085;DHT22;9675;51.538;6.728;2022-10-16T15:31:55;21.90;99.90
19085;DHT22;9675;51.538;6.728;2022-10-16T15:34:22;21.80;99.90
19085;DHT22;9675;51.538;6.728;2022-10-16T15:36:49;21.80;99.90
19085;DHT22;9675;51.538;6.728;2022-10-16T15:39:18;21.70;99.90
19085;DHT22;9675;51.538;6.728;2022-10-16T15:41:47;21.70;99.90
19085;DHT22;9675;51.538;6.728;2022-10-16T15:44:16;21.70;99.90
19085;DHT22;9675;51.538;6.728;2022-10-16T15:46:45;21.60;99.90
19085;DHT22;9675;51.538;6.728;2022-10-16T15:49:13;21.60;99.90
19085;DHT22;9675;51.538;6.728;2022-10-16T15:51:41;21.60;99.90
19085;DHT22;9675;51.538;6.728;2022-10-16T15:54:09;21.60;99.90
19085;DHT22;9675;51.538;6.728;2022-10-16T15:56:36;21.60;99.90
19085;DHT22;9675;51.538;6.728;2022-10-16T15:59:03;21.60;99.90
19085;DHT22;9675;51.538;6.728;2022-10-16T16:01:32;21.50;99.90
19085;DHT22;9675;51.538;6.728;2022-10-16T16:04:01;21.50;99.90
19085;DHT22;9675;51.538;6.728;2022-10-16T16:06:29;21.50;99.90
19085;DHT22;9675;51.538;6.728;2022-10-16T16:08:57;21.40;99.90
19085;DHT22;9675;51.538;6.728;2022-10-16T16:11:25;21.40;99.90
19085;DHT22;9675;51.538;6.728;2022-10-16T16:13:52;21.40;99.90
19085;DHT22;9675;51.538;6.728;2022-10-16T16:16:20;21.30;99.90
19085;DHT22;9675;51.538;6.728;2022-10-16T16:18:47;21.30;99.90
19085;DHT22;9675;51.538;6.728;2022-10-16T16:21:16;21.30;99.90
19085;DHT22;9675;51.538;6.728;2022-10-16T16:23:43;21.30;99.90
19085;DHT22;9675;51.538;6.728;2022-10-16T16:26:13;21.20;99.90
19085;DHT22;9675;51.538;6.728;2022-10-16T16:28:42;21.30;99.90
19085;DHT22;9675;51.538;6.728;2022-10-16T16:31:09;21.20;99.90
19085;DHT22;9675;51.538;6.728;2022-10-16T16:33:36;21.20;99.90
19085;DHT22;9675;51.538;6.728;2022-10-16T16:36:06;21.10;99.90
19085;DHT22;9675;51.538;6.728;2022-10-16T16:38:35;21.10;99.90
19085;DHT22;9675;51.538;6.728;2022-10-16T16:41:11;21.10;99.90
19085;DHT22;9675;51.538;6.728;2022-10-16T16:43:38;21.10;99.90
19085;DHT22;9675;51.538;6.728;2022-10-16T16:46:06;21.10;99.90
19085;DHT22;9675;51.538;6.728;2022-10-16T16:48:33;21.00;99.90
19085;DHT22;9675;51.538;6.728;2022-10-16T16:51:03;21.00;99.90
19085;DHT22;9675;51.538;6.728;2022-10-16T16:53:34;21.00;99.90
19085;DHT22;9675;51.538;6.728;2022-10-16T16:56:02;20.90;99.90
19085;DHT22;9675;51.538;6.728;2022-10-16T16:58:30;20.90;99.90
19085;DHT22;9675;51.538;6.728;2022-10-16T17:00:58;20.80;99.90
19085;DHT22;9675;51.538;6.728;2022-10-16T17:03:26;20.80;99.90
19085;DHT22;9675;51.538;6.728;2022-10-16T17:05:56;20.80;99.90
19085;DHT22;9675;51.538;6.728;2022-10-16T17:08:24;20.80;99.90
19085;DHT22;9675;51.538;6.728;2022-10-16T17:10:52;20.70;99.90
19085;DHT22;9675;51.538;6.728;2022-10-16T17:13:20;20.70;99.90
19085;DHT22;9675;51.538;6.728;2022-10-16T17:15:49;20.70;99.90
19085;DHT22;9675;51.538;6.728;2022-10-16T17:18:17;20.70;99.90
19085;DHT22;9675;51.538;6.728;2022-10-16T17:20:45;20.60;99.90
19085;DHT22;9675;51.538;6.728;2022-10-16T17:23:14;20.60;99.90
19085;DHT22;9675;51.538;6.728;2022-10-16T17:25:43;20.60;99.90
19085;DHT22;9675;51.538;6.728;2022-10-16T17:28:14;20.60;99.90
19085;DHT22;9675;51.538;6.728;2022-10-16T17:30:42;20.50;99.90
19085;DHT22;9675;51.538;6.728;2022-10-16T17:33:11;20.50;99.90
19085;DHT22;9675;51.538;6.728;2022-10-16T17:35:40;20.50;99.90
19085;DHT22;9675;51.538;6.728;2022-10-16T17:38:08;20.40;99.90
19085;DHT22;9675;51.538;6.728;2022-10-16T17:40:36;20.40;99.90
19085;DHT22;9675;51.538;6.728;2022-10-16T17:43:04;20.30;99.90
19085;DHT22;9675;51.538;6.728;2022-10-16T17:45:36;20.30;99.90
19085;DHT22;9675;51.538;6.728;2022-10-16T17:48:04;20.30;99.90
19085;DHT22;9675;51.538;6.728;2022-10-16T17:50:31;20.30;99.90
19085;DHT22;9675;51.538;6.728;2022-10-16T17:52:59;20.30;99.90
19085;DHT22;9675;51.538;6.728;2022-10-16T17:55:26;20.20;99.90
19085;DHT22;9675;51.538;6.728;2022-10-16T17:57:53;20.20;99.90
19085;DHT22;9675;51.538;6.728;2022-10-16T18:00:20;20.20;99.90
19085;DHT22;9675;51.538;6.728;2022-10-16T18:02:49;20.20;99.90
19085;DHT22;9675;51.538;6.728;2022-10-16T18:05:16;20.10;99.90
19085;DHT22;9675;51.538;6.728;2022-10-16T18:07:44;20.10;99.90
19085;DHT22;9675;51.538;6.728;2022-10-16T18:10:11;20.10;99.90
19085;DHT22;9675;51.538;6.728;2022-10-16T18:12:38;20.10;99.90
19085;DHT22;9675;51.538;6.728;2022-10-16T18:15:06;20.00;99.90
19085;DHT22;9675;51.538;6.728;2022-10-16T18:17:34;20.00;99.90
19085;DHT22;9675;51.538;6.728;2022-10-16T18:20:05;20.00;99.90
19085;DHT22;9675;51.538;6.728;2022-10-16T18:22:33;20.00;99.90
19085;DHT22;9675;51.538;6.728;2022-10-16T18:25:01;20.00;99.90
19085;DHT22;9675;51.538;6.728;2022-10-16T18:27:29;19.90;99.90
19085;DHT22;9675;51.538;6.728;2022-10-16T18:29:57;19.90;99.90
19085;DHT22;9675;51.538;6.728;2022-10-16T18:32:24;19.90;99.90
19085;DHT22;9675;51.538;6.728;2022-10-16T18:34:52;19.80;99.90
19085;DHT22;9675;51.538;6.728;2022-10-16T18:37:21;19.80;99.90
19085;DHT22;9675;51.538;6.728;2022-10-16T18:39:48;19.80;99.90
19085;DHT22;9675;51.538;6.728;2022-10-16T18:42:16;19.80;99.90
19085;DHT22;9675;51.538;6.728;2022-10-16T18:44:43;19.80;99.90
19085;DHT22;9675;51.538;6.728;2022-10-16T18:47:11;19.70;99.90
19085;DHT22;9675;51.538;6.728;2022-10-16T18:49:38;19.70;99.90
19085;DHT22;9675;51.538;6.728;2022-10-16T18:52:05;19.70;99.90
19085;DHT22;9675;51.538;6.728;2022-10-16T18:54:33;19.70;99.90
19085;DHT22;9675;51.538;6.728;2022-10-16T18:57:02;19.70;99.90
19085;DHT22;9675;51.538;6.728;2022-10-16T18:59:29;19.60;99.90
19085;DHT22;9675;51.538;6.728;2022-10-16T19:01:56;19.60;99.90
19085;DHT22;9675;51.538;6.728;2022-10-16T19:04:23;19.60;99.90
19085;DHT22;9675;51.538;6.728;2022-10-16T19:06:52;19.60;99.90
19085;DHT22;9675;51.538;6.728;2022-10-16T19:09:20;19.60;99.90
19085;DHT22;9675;51.538;6.728;2022-10-16T19:11:50;19.60;99.90
19085;DHT22;9675;51.538;6.728;2022-10-16T19:14:17;19.50;99.90
19085;DHT22;9675;51.538;6.728;2022-10-16T19:16:45;19.50;99.90
19085;DHT22;9675;51.538;6.728;2022-10-16T19:19:15;19.50;99.90
19085;DHT22;9675;51.538;6.728;2022-10-16T19:21:44;19.40;99.90
19085;DHT22;9675;51.538;6.728;2022-10-16T19:24:13;19.40;99.90
19085;DHT22;9675;51.538;6.728;2022-10-16T19:26:41;19.40;99.90
19085;DHT22;9675;51.538;6.728;2022-10-16T19:29:10;19.40;99.90
19085;DHT22;9675;51.538;6.728;2022-10-16T19:31:38;19.40;99.90
19085;DHT22;9675;51.538;6.728;2022-10-16T19:34:06;19.30;99.90
19085;DHT22;9675;51.538;6.728;2022-10-16T19:36:36;19.30;99.90
19085;DHT22;9675;51.538;6.728;2022-10-16T19:39:06;19.30;99.90
19085;DHT22;9675;51.538;6.728;2022-10-16T19:41:37;19.30;99.90
19085;DHT22;9675;51.538;6.728;2022-10-16T19:44:06;19.20;99.90
19085;DHT22;9675;51.538;6.728;2022-10-16T19:46:36;19.20;99.90
19085;DHT22;9675;51.538;6.728;2022-10-16T19:49:06;19.20;99.90
19085;DHT22;9675;51.538;6.728;2022-10-16T19:51:35;19.20;99.90
19085;DHT22;9675;51.538;6.728;2022-10-16T19:54:04;19.10;99.90
19085;DHT22;9675;51.538;6.728;2022-10-16T19:56:34;19.10;99.90
19085;DHT22;9675;51.538;6.728;2022-10-16T19:59:04;19.10;99.90
19085;DHT22;9675;51.538;6.728;2022-10-16T20:01:37;19.10;99.90
19085;DHT22;9675;51.538;6.728;2022-10-16T20:04:04;19.00;99.90
19085;DHT22;9675;51.538;6.728;2022-10-16T20:06:31;19.00;99.90
19085;DHT22;9675;51.538;6.728;2022-10-16T20:08:58;19.00;99.90
19085;DHT22;9675;51.538;6.728;2022-10-16T20:11:27;19.00;99.90
19085;DHT22;9675;51.538;6.728;2022-10-16T20:13:56;19.00;99.90
19085;DHT22;9675;51.538;6.728;2022-10-16T20:16:25;18.90;99.90
19085;DHT22;9675;51.538;6.728;2022-10-16T20:18:55;18.90;99.90